Time;durP1;ratioP1;P1;durP2;ratioP2;P2;SDS_P1;SDS_P2;PMS_P1;PMS_P2;Temp;Humidity;BMP_temperature;BMP_pressure;BME280_temperature;BME280_humidity;BME280_pressure;Samples;Min_cycle;Max_cycle;Signal;HPM_P1;HPM_P2
2020/12/18 00:01:24;;;;;;;11.60;3.30;;;9.80;99.90;;;;;;5032442;28;20936;-65
2020/12/18 00:03:51;;;;;;;6.50;3.43;;;9.80;99.90;;;;;;5031120;28;20418;-65
2020/12/18 00:06:17;;;;;;;5.33;2.67;;;9.80;99.90;;;;;;5031994;28;20457;-65
2020/12/18 00:08:42;;;;;;;5.67;3.50;;;9.90;99.90;;;;;;5032402;28;20474;-65
2020/12/18 00:11:08;;;;;;;3.67;3.27;;;9.90;99.90;;;;;;5030821;28;20590;-65
2020/12/18 00:13:33;;;;;;;6.03;3.47;;;9.90;99.90;;;;;;5031617;28;20180;-65
2020/12/18 00:15:59;;;;;;;7.87;3.60;;;9.80;99.90;;;;;;5031023;28;20171;-65
2020/12/18 00:18:25;;;;;;;8.07;3.53;;;9.80;99.90;;;;;;5032050;28;20178;-65
2020/12/18 00:20:51;;;;;;;4.87;3.67;;;9.80;99.90;;;;;;5032124;28;20341;-65
2020/12/18 00:23:17;;;;;;;8.10;3.23;;;9.80;99.90;;;;;;5032114;28;20591;-64
2020/12/18 00:25:47;;;;;;;6.23;3.00;;;9.80;99.90;;;;;;5032202;28;20430;-64
2020/12/18 00:28:13;;;;;;;9.20;3.83;;;9.80;99.90;;;;;;5029870;28;20219;-64
2020/12/18 00:30:40;;;;;;;11.30;3.47;;;9.80;99.90;;;;;;5031607;28;20430;-64
2020/12/18 00:33:05;;;;;;;4.17;2.90;;;9.90;99.90;;;;;;5032361;28;20521;-63
2020/12/18 00:35:31;;;;;;;3.80;2.57;;;9.90;99.90;;;;;;5031827;28;21495;-62
2020/12/18 00:37:56;;;;;;;7.90;3.17;;;9.90;99.90;;;;;;5030606;28;20171;-63
2020/12/18 00:40:22;;;;;;;8.60;3.90;;;9.90;99.90;;;;;;5030467;28;20179;-62
2020/12/18 00:42:47;;;;;;;7.00;3.30;;;10.00;99.90;;;;;;5030423;28;20207;-62
2020/12/18 00:45:13;;;;;;;13.20;2.90;;;10.00;99.90;;;;;;5030099;28;20535;-63
2020/12/18 00:47:39;;;;;;;7.40;3.20;;;10.00;99.90;;;;;;5030011;28;20239;-63
2020/12/18 00:50:05;;;;;;;5.93;2.63;;;10.00;99.90;;;;;;5030251;28;20183;-63
2020/12/18 00:52:30;;;;;;;8.30;3.37;;;10.00;99.90;;;;;;5031637;28;20480;-63
2020/12/18 00:54:56;;;;;;;5.60;2.83;;;10.00;99.90;;;;;;5032237;28;20172;-63
2020/12/18 00:57:21;;;;;;;9.40;3.73;;;10.00;99.90;;;;;;5032562;28;20176;-63
2020/12/18 00:59:47;;;;;;;6.47;3.23;;;10.00;99.90;;;;;;5032219;28;20630;-62
2020/12/18 01:02:12;;;;;;;8.00;3.80;;;10.00;99.90;;;;;;5032060;28;20203;-63
2020/12/18 01:04:38;;;;;;;7.10;3.60;;;10.00;99.90;;;;;;5031117;28;20472;-67
2020/12/18 01:07:03;;;;;;;8.53;3.30;;;10.10;99.90;;;;;;5032105;28;20214;-67
2020/12/18 01:09:29;;;;;;;4.33;2.70;;;10.10;99.90;;;;;;5034637;28;20205;-67
2020/12/18 01:11:54;;;;;;;4.30;2.50;;;10.10;99.90;;;;;;5037603;28;20222;-68
2020/12/18 01:14:20;;;;;;;4.33;3.23;;;10.00;99.90;;;;;;5036716;28;20180;-67
2020/12/18 01:16:53;;;;;;;8.07;2.67;;;10.00;99.90;;;;;;5036814;28;20217;-67
2020/12/18 01:19:20;;;;;;;4.60;2.97;;;10.00;99.90;;;;;;5036852;28;20427;-66
2020/12/18 01:21:47;;;;;;;3.90;2.77;;;10.00;99.90;;;;;;5036749;28;20921;-67
2020/12/18 01:24:13;;;;;;;6.37;3.57;;;10.00;99.90;;;;;;5036731;28;20947;-67
2020/12/18 01:26:38;;;;;;;6.45;3.50;;;10.00;99.90;;;;;;5036529;28;20513;-68
2020/12/18 01:29:04;;;;;;;12.63;3.10;;;10.00;99.90;;;;;;5036617;28;20308;-68
2020/12/18 01:31:30;;;;;;;8.17;2.97;;;10.00;99.90;;;;;;5036714;28;20180;-68
2020/12/18 01:33:55;;;;;;;5.53;2.83;;;10.00;99.90;;;;;;5036574;28;20176;-67
2020/12/18 01:36:21;;;;;;;10.30;3.43;;;10.00;99.90;;;;;;5036555;28;20187;-68
2020/12/18 01:38:47;;;;;;;4.90;2.80;;;9.90;99.90;;;;;;5036500;28;20202;-68
2020/12/18 01:41:12;;;;;;;8.80;2.80;;;10.00;99.90;;;;;;5036456;28;20225;-68
2020/12/18 01:43:38;;;;;;;7.20;3.30;;;9.90;99.90;;;;;;5036484;28;20182;-69
2020/12/18 01:46:09;;;;;;;6.70;2.87;;;9.90;99.90;;;;;;5036335;28;20176;-68
2020/12/18 01:48:38;;;;;;;3.60;2.87;;;9.90;99.90;;;;;;5036133;28;20242;-67
2020/12/18 01:51:11;;;;;;;6.33;2.60;;;9.90;99.90;;;;;;5036248;28;20418;-66
2020/12/18 01:53:39;;;;;;;4.63;3.03;;;9.90;99.90;;;;;;5036353;28;20432;-65
2020/12/18 01:56:06;;;;;;;4.17;2.70;;;9.90;99.90;;;;;;5036122;28;20450;-65
2020/12/18 01:58:34;;;;;;;7.50;2.50;;;9.90;99.90;;;;;;5036096;28;20512;-64
2020/12/18 02:01:05;;;;;;;8.23;2.80;;;9.90;99.90;;;;;;5035931;28;20476;-64
2020/12/18 02:03:31;;;;;;;5.10;2.97;;;9.90;99.90;;;;;;5035998;28;20923;-63
2020/12/18 02:06:01;;;;;;;8.30;2.67;;;9.90;99.90;;;;;;5035951;28;20434;-63
2020/12/18 02:08:29;;;;;;;3.57;2.63;;;9.90;99.90;;;;;;5035928;28;20484;-64
2020/12/18 06:30:36;;;;;;;3.90;2.60;;;9.10;99.90;;;;;;5933025;23;20501;31
2020/12/18 06:33:02;;;;;;;5.53;2.67;;;9.20;99.90;;;;;;4861464;29;20533;-67
2020/12/18 06:35:29;;;;;;;5.30;2.57;;;9.10;99.90;;;;;;4863034;29;20438;-66
2020/12/18 06:37:55;;;;;;;12.97;3.20;;;9.00;99.90;;;;;;4863032;29;20520;-67
2020/12/18 06:40:31;;;;;;;7.30;2.20;;;9.10;99.90;;;;;;4863089;29;20434;-67
2020/12/18 06:42:58;;;;;;;5.10;2.80;;;9.00;99.90;;;;;;4862979;29;20474;-69
2020/12/18 06:45:24;;;;;;;3.23;2.30;;;9.10;99.90;;;;;;4862880;29;20918;-68
2020/12/18 06:47:50;;;;;;;3.00;2.00;;;9.00;99.90;;;;;;4862759;29;20469;-67
2020/12/18 06:50:17;;;;;;;4.53;2.73;;;9.10;99.90;;;;;;4862793;29;20446;-69
2020/12/18 06:52:52;;;;;;;9.03;3.30;;;9.10;99.90;;;;;;4862855;29;20784;-69
2020/12/18 06:55:26;;;;;;;4.90;3.50;;;9.20;99.90;;;;;;4862757;29;20453;-68
2020/12/18 06:58:04;;;;;;;6.03;2.50;;;9.20;99.90;;;;;;4862527;29;20468;-68
2020/12/18 07:00:31;;;;;;;3.60;1.80;;;9.20;99.90;;;;;;4862666;29;20498;-67
2020/12/18 07:02:57;;;;;;;5.27;2.40;;;9.20;99.90;;;;;;4862560;29;20782;-67
2020/12/18 07:05:42;;;;;;;4.40;2.53;;;9.10;99.90;;;;;;4862506;29;20530;-66
2020/12/18 07:08:09;;;;;;;7.77;2.93;;;9.20;99.90;;;;;;4862337;29;20589;-66
2020/12/18 07:10:42;;;;;;;5.43;2.77;;;9.20;99.90;;;;;;4862645;29;20430;-65
2020/12/18 07:13:14;;;;;;;8.93;2.60;;;9.30;99.90;;;;;;4857206;29;20435;-65
2020/12/18 07:15:42;;;;;;;3.90;3.00;;;9.30;99.90;;;;;;4855796;29;20435;-66
2020/12/18 07:18:23;;;;;;;3.83;2.97;;;9.30;99.90;;;;;;4971243;23;20560;-65
2020/12/18 07:21:00;;;;;;;5.93;3.10;;;9.40;99.90;;;;;;4899518;29;20439;-65
2020/12/18 07:23:27;;;;;;;6.87;3.90;;;9.30;99.90;;;;;;4898774;29;20535;-66
2020/12/18 07:25:55;;;;;;;9.90;2.83;;;9.30;99.90;;;;;;4899260;29;20432;-67
2020/12/18 07:28:22;;;;;;;7.23;3.10;;;9.40;99.90;;;;;;4898318;29;20516;-66
2020/12/18 07:30:50;;;;;;;6.80;2.70;;;9.40;99.90;;;;;;4898040;29;20853;-67
2020/12/18 07:33:18;;;;;;;12.10;3.23;;;9.40;99.90;;;;;;4897512;29;20452;-67
2020/12/18 07:35:49;;;;;;;8.67;3.07;;;9.30;99.90;;;;;;4898197;29;20967;-67
2020/12/18 07:38:27;;;;;;;4.80;3.00;;;9.30;99.90;;;;;;4898689;29;20443;-66
2020/12/18 07:40:58;;;;;;;9.30;3.20;;;9.30;99.90;;;;;;4898537;29;20958;-66
2020/12/18 07:43:29;;;;;;;5.20;3.20;;;9.30;99.90;;;;;;4898944;29;20437;-64
2020/12/18 07:45:56;;;;;;;7.87;3.50;;;9.20;99.90;;;;;;4899006;29;20797;-66
2020/12/18 07:48:31;;;;;;;7.50;2.87;;;9.20;99.90;;;;;;4898639;29;20480;-65
2020/12/18 07:51:19;;;;;;;5.80;3.00;;;9.20;99.90;;;;;;4896858;29;20793;-78
2020/12/18 07:53:46;;;;;;;4.20;3.60;;;9.20;99.90;;;;;;4897174;29;20219;-82
2020/12/18 07:56:17;;;;;;;6.33;3.23;;;9.20;99.90;;;;;;4897201;29;20464;-81
2020/12/18 07:58:56;;;;;;;6.83;2.70;;;9.30;99.90;;;;;;4897180;29;20444;-84
2020/12/18 08:01:27;;;;;;;5.17;2.90;;;9.30;99.90;;;;;;4897253;29;20433;-86
2020/12/18 08:03:55;;;;;;;4.70;2.27;;;9.30;99.90;;;;;;4897245;29;20479;-83
2020/12/18 08:06:23;;;;;;;4.70;2.60;;;9.30;99.90;;;;;;4898132;29;20891;-84
2020/12/18 08:08:54;;;;;;;6.60;2.63;;;9.40;99.90;;;;;;4898654;29;20837;-84
2020/12/18 08:11:20;;;;;;;3.77;2.07;;;9.40;99.90;;;;;;4898919;29;20421;-85
2020/12/18 08:13:46;;;;;;;9.20;2.50;;;9.40;99.90;;;;;;4898843;29;20488;-85
2020/12/18 08:16:14;;;;;;;4.50;2.53;;;9.40;99.90;;;;;;4898820;29;20429;-85
2020/12/18 08:18:45;;;;;;;5.43;2.77;;;9.40;99.90;;;;;;4898216;29;20322;-84
2020/12/18 08:21:11;;;;;;;3.40;2.33;;;9.30;99.90;;;;;;4897562;29;20432;-79
2020/12/18 08:23:44;;;;;;;6.27;2.43;;;9.30;99.90;;;;;;4897510;29;20440;-78
2020/12/18 08:26:10;;;;;;;4.03;2.73;;;9.40;99.90;;;;;;4897522;29;20184;-79
2020/12/18 08:28:36;;;;;;;4.33;2.87;;;9.40;99.90;;;;;;4897534;29;20550;-76
2020/12/18 08:31:06;;;;;;;5.93;2.20;;;9.50;99.90;;;;;;4897347;29;20432;-76
2020/12/18 08:33:36;;;;;;;4.93;2.93;;;9.50;99.90;;;;;;4897791;29;20491;-73
2020/12/18 08:36:02;;;;;;;5.27;3.13;;;9.60;99.90;;;;;;4897431;29;20432;-75
2020/12/18 08:38:28;;;;;;;4.33;2.50;;;9.60;99.90;;;;;;4897491;29;20804;-76
2020/12/18 08:40:57;;;;;;;4.30;2.20;;;9.70;99.90;;;;;;4897272;29;20447;-75
2020/12/18 08:43:23;;;;;;;4.63;2.60;;;9.60;99.90;;;;;;4897329;29;20184;-76
2020/12/18 08:45:48;;;;;;;7.80;2.80;;;9.70;99.90;;;;;;4897282;29;20437;-76
2020/12/18 08:48:26;;;;;;;6.00;2.93;;;9.70;99.90;;;;;;4897164;29;20220;-79
2020/12/18 08:50:59;;;;;;;7.53;2.37;;;9.80;99.90;;;;;;4897425;29;20208;-88
2020/12/18 08:53:33;;;;;;;4.73;2.40;;;9.90;99.90;;;;;;4897801;29;20440;-84
2020/12/18 08:56:03;;;;;;;3.67;2.43;;;10.00;99.90;;;;;;4897759;29;20794;-81
2020/12/18 08:58:33;;;;;;;6.70;2.33;;;10.00;99.90;;;;;;4897551;29;20445;-81
2020/12/18 09:01:01;;;;;;;2.17;1.97;;;10.00;99.90;;;;;;4897318;29;20432;-83
2020/12/18 09:03:38;;;;;;;6.43;2.20;;;10.00;99.90;;;;;;4897521;29;20535;-83
2020/12/18 09:06:11;;;;;;;6.33;2.77;;;10.00;99.90;;;;;;4897367;29;20432;-83
2020/12/18 09:08:36;;;;;;;5.93;2.27;;;9.90;99.90;;;;;;4897566;29;20563;-92
2020/12/18 09:11:02;;;;;;;2.50;2.30;;;10.00;99.90;;;;;;4898246;29;20553;-87
2020/12/18 09:13:29;;;;;;;5.93;2.60;;;10.10;99.90;;;;;;4897296;29;20189;-83
2020/12/18 09:16:00;;;;;;;5.77;2.73;;;10.10;99.90;;;;;;4898553;29;20191;-89
2020/12/18 09:18:37;;;;;;;7.40;2.60;;;10.10;99.90;;;;;;4897168;29;20482;-89
2020/12/18 09:21:16;;;;;;;3.10;2.10;;;10.10;99.90;;;;;;4898621;29;20424;-83
2020/12/18 09:23:43;;;;;;;4.90;2.67;;;10.20;99.90;;;;;;4897348;29;20441;-82
2020/12/18 09:26:09;;;;;;;3.33;1.90;;;10.30;99.90;;;;;;4897633;29;20433;-89
2020/12/18 09:28:37;;;;;;;3.90;2.20;;;10.30;99.90;;;;;;4897856;29;20480;-89
2020/12/18 09:31:04;;;;;;;5.77;2.27;;;10.40;99.90;;;;;;4900228;29;20189;-90
2020/12/18 09:33:32;;;;;;;5.10;2.40;;;10.30;99.90;;;;;;4901540;29;20437;-78
2020/12/18 09:36:07;;;;;;;2.77;2.20;;;10.40;99.90;;;;;;4900181;29;20436;-79
2020/12/18 09:38:46;;;;;;;6.17;2.40;;;10.40;99.90;;;;;;4900761;29;20947;-78
2020/12/18 09:41:20;;;;;;;4.67;2.20;;;10.50;99.90;;;;;;4900539;29;20455;-78
2020/12/18 09:43:47;;;;;;;11.03;3.77;;;10.50;99.90;;;;;;4900422;29;20440;-74
2020/12/18 09:46:13;;;;;;;5.50;2.30;;;10.50;99.90;;;;;;4891167;29;20555;-73
2020/12/18 09:48:46;;;;;;;8.23;2.37;;;10.60;99.90;;;;;;4881561;29;20516;-74
2020/12/18 09:51:13;;;;;;;11.67;5.40;;;10.90;99.90;;;;;;4889806;29;20185;-73
2020/12/18 09:53:39;;;;;;;8.13;2.77;;;11.30;99.90;;;;;;4891199;29;20443;-75
2020/12/18 09:56:09;;;;;;;3.43;2.53;;;11.50;99.90;;;;;;4890856;29;20429;-77
2020/12/18 09:58:35;;;;;;;4.83;2.90;;;11.60;99.90;;;;;;4872784;29;20185;-74
2020/12/18 10:01:00;;;;;;;8.03;2.90;;;11.70;99.90;;;;;;4893116;29;20443;-78
2020/12/18 10:03:26;;;;;;;6.90;2.73;;;11.80;99.90;;;;;;4899615;29;20168;-79
2020/12/18 10:05:51;;;;;;;8.13;2.70;;;11.80;99.90;;;;;;4899553;29;20185;-81
2020/12/18 10:08:17;;;;;;;5.43;2.73;;;11.70;99.90;;;;;;4893332;29;20228;-78
2020/12/18 10:10:43;;;;;;;4.67;2.37;;;11.70;99.90;;;;;;4890637;29;20177;-86
2020/12/18 10:13:09;;;;;;;4.67;2.63;;;11.70;99.90;;;;;;4889396;29;20615;-85
2020/12/18 10:15:35;;;;;;;4.07;2.47;;;11.70;99.90;;;;;;4898774;29;20637;-82
2020/12/18 10:18:00;;;;;;;3.10;2.17;;;11.60;99.90;;;;;;4899319;29;20316;-82
2020/12/18 10:20:26;;;;;;;9.23;2.40;;;11.40;99.90;;;;;;4898680;29;20547;-82
2020/12/18 10:22:52;;;;;;;3.50;1.63;;;11.50;99.90;;;;;;4895355;29;20185;-82
2020/12/18 10:25:17;;;;;;;4.80;2.00;;;11.50;99.90;;;;;;4899347;29;20189;-79
2020/12/18 10:27:43;;;;;;;4.63;2.23;;;11.60;99.90;;;;;;4899608;29;20243;-78
2020/12/18 10:30:09;;;;;;;4.27;2.00;;;11.60;99.90;;;;;;4899392;29;20271;-77
2020/12/18 10:32:35;;;;;;;2.13;1.57;;;11.50;99.90;;;;;;4899113;29;20492;-79
2020/12/18 10:35:02;;;;;;;3.97;1.70;;;11.60;99.90;;;;;;4898527;29;20956;-79
2020/12/18 10:37:28;;;;;;;3.03;2.00;;;11.50;99.90;;;;;;4899240;29;20606;-78
2020/12/18 10:39:54;;;;;;;5.20;2.50;;;11.60;99.90;;;;;;4899247;29;20503;-79
2020/12/18 10:42:20;;;;;;;3.87;1.83;;;11.60;99.90;;;;;;4890505;29;20185;-79
2020/12/18 10:44:47;;;;;;;5.67;2.07;;;11.60;99.90;;;;;;4891613;29;20586;-78
2020/12/18 10:47:13;;;;;;;4.60;2.00;;;11.60;99.90;;;;;;4898589;29;20488;-79
2020/12/18 10:49:39;;;;;;;4.30;2.17;;;11.60;99.90;;;;;;4898223;29;20433;-80
2020/12/18 10:52:05;;;;;;;2.27;1.70;;;11.70;99.90;;;;;;4899323;29;20185;-80
2020/12/18 10:54:31;;;;;;;6.53;2.40;;;11.70;99.90;;;;;;4899447;29;20271;-78
2020/12/18 10:56:57;;;;;;;3.30;1.90;;;11.70;99.90;;;;;;4899071;29;20440;-81
2020/12/18 10:59:26;;;;;;;10.20;2.07;;;11.80;99.90;;;;;;4899171;29;20433;-78
2020/12/18 11:01:56;;;;;;;10.03;1.70;;;11.90;99.90;;;;;;4899214;29;20687;-78
2020/12/18 11:04:21;;;;;;;6.20;1.63;;;12.00;99.90;;;;;;4899124;29;20437;-77
2020/12/18 11:06:47;;;;;;;4.23;1.70;;;12.10;99.90;;;;;;4898904;29;20828;-78
2020/12/18 11:09:14;;;;;;;3.50;1.50;;;12.10;99.90;;;;;;4898968;29;20212;-79
2020/12/18 11:11:40;;;;;;;2.27;1.30;;;12.30;99.90;;;;;;4898867;29;20194;-79
2020/12/18 11:14:05;;;;;;;2.30;1.37;;;12.30;99.90;;;;;;4898701;29;20865;-78
2020/12/18 11:16:32;;;;;;;4.43;2.90;;;12.40;99.90;;;;;;4898683;29;20180;-78
2020/12/18 11:19:01;;;;;;;2.70;1.80;;;12.40;99.90;;;;;;4895486;29;20225;-78
2020/12/18 11:21:28;;;;;;;3.00;2.20;;;12.50;99.90;;;;;;4888017;29;20967;-76
2020/12/18 11:23:54;;;;;;;4.60;1.80;;;12.50;99.90;;;;;;4889733;29;20445;-78
2020/12/18 11:26:20;;;;;;;4.83;1.97;;;12.70;99.90;;;;;;4892736;29;20448;-77
2020/12/18 11:28:45;;;;;;;3.27;1.67;;;12.70;99.90;;;;;;4896603;29;20539;-77
2020/12/18 11:31:11;;;;;;;3.80;1.87;;;12.80;99.90;;;;;;4898237;29;20204;-78
2020/12/18 11:33:37;;;;;;;3.20;1.60;;;13.00;99.90;;;;;;4901606;29;20264;-78
2020/12/18 11:36:02;;;;;;;1.73;1.40;;;13.00;99.90;;;;;;4901969;29;20271;-81
2020/12/18 11:38:28;;;;;;;5.73;1.90;;;13.10;99.90;;;;;;4898932;29;20543;-81
2020/12/18 11:40:54;;;;;;;3.83;1.43;;;13.30;99.90;;;;;;4901736;29;20200;-82
2020/12/18 11:43:19;;;;;;;6.17;2.07;;;13.30;99.90;;;;;;4867621;29;20263;-81
2020/12/18 11:45:45;;;;;;;2.80;1.97;;;13.40;99.90;;;;;;4907808;29;20275;-81
2020/12/18 11:48:10;;;;;;;8.50;1.97;;;13.60;99.90;;;;;;4909709;29;20215;-81
2020/12/18 11:50:36;;;;;;;5.17;1.80;;;13.80;99.90;;;;;;4917481;29;20290;-81
2020/12/18 11:53:01;;;;;;;5.13;1.87;;;14.00;99.90;;;;;;4913880;29;20172;-82
2020/12/18 11:55:27;;;;;;;6.73;1.57;;;14.20;99.90;;;;;;4899590;29;20612;-77
2020/12/18 11:57:53;;;;;;;3.03;1.70;;;14.50;99.90;;;;;;4897306;29;20181;-77
2020/12/18 12:00:20;;;;;;;3.30;1.50;;;14.50;99.90;;;;;;4900024;29;20204;-77
2020/12/18 12:02:53;;;;;;;2.53;1.67;;;14.40;99.90;;;;;;4898904;29;20487;-76
2020/12/18 12:05:19;;;;;;;5.50;2.00;;;14.50;99.90;;;;;;4896420;29;20440;-76
2020/12/18 12:07:45;;;;;;;5.20;1.90;;;14.50;99.90;;;;;;4900490;29;20519;-77
2020/12/18 12:10:12;;;;;;;6.10;1.77;;;14.60;99.90;;;;;;4899390;29;20516;-77
2020/12/18 12:12:38;;;;;;;9.57;2.07;;;14.50;99.90;;;;;;4893498;29;20441;-77
2020/12/18 12:15:04;;;;;;;3.27;1.57;;;14.40;99.90;;;;;;4905241;29;20531;-76
2020/12/18 12:17:30;;;;;;;11.10;1.73;;;14.40;99.90;;;;;;4899498;29;20255;-76
2020/12/18 12:19:56;;;;;;;4.30;1.60;;;14.30;99.90;;;;;;4891709;29;20450;-77
2020/12/18 12:22:23;;;;;;;2.87;1.60;;;14.40;99.90;;;;;;4892615;29;20433;-76
2020/12/18 12:24:50;;;;;;;5.00;2.03;;;14.40;99.90;;;;;;4891898;29;20684;-77
2020/12/18 12:27:15;;;;;;;10.23;2.77;;;14.40;99.90;;;;;;4892749;29;20493;-77
2020/12/18 12:29:41;;;;;;;3.73;1.77;;;14.20;99.90;;;;;;4902772;29;20828;-78
2020/12/18 12:32:07;;;;;;;2.70;1.63;;;14.20;99.90;;;;;;4895791;29;20183;-79
2020/12/18 12:34:33;;;;;;;6.40;2.40;;;14.10;99.90;;;;;;4903700;29;20230;-78
2020/12/18 12:36:59;;;;;;;5.33;1.87;;;14.00;99.90;;;;;;4915770;29;20172;-78
2020/12/18 12:39:25;;;;;;;4.53;1.57;;;14.10;99.90;;;;;;4914217;29;20436;-78
2020/12/18 12:41:51;;;;;;;3.83;1.43;;;13.90;99.90;;;;;;4915382;29;20436;-82
2020/12/18 12:44:17;;;;;;;6.07;2.13;;;13.80;99.90;;;;;;4916180;29;20435;-82
2020/12/18 12:46:42;;;;;;;5.73;1.70;;;13.80;99.90;;;;;;4916453;29;20588;-84
2020/12/18 12:49:08;;;;;;;3.03;1.27;;;13.80;99.90;;;;;;4916432;29;20302;-82
2020/12/18 12:51:34;;;;;;;2.60;1.20;;;13.80;99.90;;;;;;4916531;29;20659;-83
2020/12/18 12:53:59;;;;;;;3.20;1.53;;;13.90;99.90;;;;;;4916781;29;20183;-78
2020/12/18 12:56:25;;;;;;;3.00;1.23;;;13.80;99.90;;;;;;4907318;29;20190;-78
2020/12/18 12:58:51;;;;;;;5.53;1.80;;;13.70;99.90;;;;;;4896953;29;20184;-80
2020/12/18 13:01:16;;;;;;;3.27;1.60;;;13.80;99.90;;;;;;4894656;29;20220;-82
2020/12/18 13:03:42;;;;;;;2.77;1.40;;;13.70;99.90;;;;;;4902235;29;20256;-75
2020/12/18 13:06:08;;;;;;;4.00;1.30;;;13.70;99.90;;;;;;4899214;29;20586;-74
2020/12/18 13:08:33;;;;;;;3.30;1.03;;;13.70;99.90;;;;;;4902047;29;20203;-81
2020/12/18 13:10:59;;;;;;;2.90;1.40;;;13.60;99.90;;;;;;4901894;29;20215;-86
2020/12/18 13:13:24;;;;;;;3.97;1.50;;;13.70;99.90;;;;;;4903863;29;20184;-75
2020/12/18 13:15:50;;;;;;;2.97;1.50;;;13.70;99.90;;;;;;4913774;29;20168;-77
2020/12/18 13:18:16;;;;;;;1.93;1.83;;;13.60;99.90;;;;;;4920436;29;20234;-78
2020/12/18 13:20:41;;;;;;;4.20;2.17;;;13.80;99.90;;;;;;4914079;29;20244;-78
2020/12/18 13:23:07;;;;;;;4.30;2.20;;;13.90;99.90;;;;;;4901201;29;20554;-76
2020/12/18 13:25:32;;;;;;;3.80;1.67;;;13.90;99.90;;;;;;4912530;29;20235;-78
2020/12/18 13:27:58;;;;;;;4.80;1.97;;;13.90;99.90;;;;;;4920188;29;20270;-79
2020/12/18 13:30:24;;;;;;;4.90;2.43;;;13.70;99.90;;;;;;4920384;29;20176;-79
2020/12/18 13:32:50;;;;;;;2.33;1.50;;;13.80;99.90;;;;;;4913900;29;20208;-78
2020/12/18 13:35:16;;;;;;;7.63;2.10;;;13.70;99.90;;;;;;4883865;29;20212;-78
2020/12/18 13:37:41;;;;;;;3.10;1.77;;;13.70;99.90;;;;;;4899869;29;20432;-78
2020/12/18 13:40:08;;;;;;;3.00;1.80;;;13.70;99.90;;;;;;4900292;29;20484;-79
2020/12/18 13:42:35;;;;;;;2.70;1.80;;;13.80;99.90;;;;;;4901017;29;20176;-80
2020/12/18 13:45:00;;;;;;;3.87;1.57;;;13.90;99.90;;;;;;4901060;29;20564;-79
2020/12/18 13:47:26;;;;;;;3.03;1.73;;;13.80;99.90;;;;;;4901117;29;20815;-77
2020/12/18 13:49:51;;;;;;;4.43;2.33;;;13.80;99.90;;;;;;4901201;29;20315;-77
2020/12/18 13:52:20;;;;;;;1.80;1.60;;;13.60;99.90;;;;;;4900923;29;20195;-82
2020/12/18 13:54:45;;;;;;;5.37;2.23;;;13.60;99.90;;;;;;4898725;29;20216;-81
2020/12/18 13:57:11;;;;;;;10.90;3.30;;;13.60;99.90;;;;;;4900562;29;20519;-77
2020/12/18 13:59:36;;;;;;;2.53;1.90;;;13.50;99.90;;;;;;4900561;29;20176;-77
2020/12/18 14:02:02;;;;;;;2.97;1.77;;;13.40;99.90;;;;;;4899629;29;20184;-85
2020/12/18 14:04:29;;;;;;;1.93;1.47;;;13.10;99.90;;;;;;4900420;29;20173;-77
2020/12/18 14:06:59;;;;;;;3.73;2.63;;;13.00;99.90;;;;;;4900205;29;20624;-79
2020/12/18 14:09:25;;;;;;;2.13;1.63;;;13.00;99.90;;;;;;4900166;29;21011;-76
2020/12/18 14:11:50;;;;;;;4.20;2.03;;;12.90;99.90;;;;;;4892444;29;20429;-79
2020/12/18 14:14:16;;;;;;;4.67;2.60;;;13.00;99.90;;;;;;4900562;29;20440;-80
2020/12/18 14:16:42;;;;;;;6.00;2.80;;;13.10;99.90;;;;;;4899222;29;20534;-75
2020/12/18 14:19:08;;;;;;;5.83;1.70;;;13.00;99.90;;;;;;4900068;29;20176;-77
2020/12/18 14:21:35;;;;;;;1.67;1.40;;;12.90;99.90;;;;;;4897280;29;20215;-82
2020/12/18 14:24:01;;;;;;;3.37;1.80;;;12.80;99.90;;;;;;4900567;29;20176;-75
2020/12/18 14:26:26;;;;;;;2.40;1.50;;;12.80;99.90;;;;;;4900153;29;20463;-79
2020/12/18 14:28:52;;;;;;;1.40;1.30;;;12.70;99.90;;;;;;4899941;29;20220;-77
2020/12/18 14:31:18;;;;;;;3.23;1.90;;;12.70;99.90;;;;;;4890087;29;20275;-79
2020/12/18 14:33:43;;;;;;;3.67;2.03;;;12.70;99.90;;;;;;4891383;29;20193;-79
2020/12/18 14:36:09;;;;;;;6.43;2.43;;;12.50;99.90;;;;;;4889849;29;20267;-77
2020/12/18 14:38:34;;;;;;;6.13;2.23;;;12.40;99.90;;;;;;4899862;29;20184;-77
2020/12/18 14:41:01;;;;;;;3.50;1.73;;;12.40;99.90;;;;;;4900198;29;20188;-73
2020/12/18 14:43:29;;;;;;;3.07;2.43;;;12.40;99.90;;;;;;4899707;29;20185;-73
2020/12/18 14:46:02;;;;;;;2.77;1.67;;;12.30;99.90;;;;;;4898609;29;20432;-74
2020/12/18 14:48:28;;;;;;;5.53;1.90;;;12.30;99.90;;;;;;4897998;29;20512;-75
2020/12/18 14:50:54;;;;;;;5.00;2.10;;;12.30;99.90;;;;;;4899029;29;20479;-76
2020/12/18 14:53:20;;;;;;;3.20;1.73;;;12.10;99.90;;;;;;4898986;29;20187;-76
2020/12/18 14:55:46;;;;;;;3.87;2.07;;;12.10;99.90;;;;;;4898610;29;20262;-74
2020/12/18 14:58:11;;;;;;;4.30;1.80;;;12.00;99.90;;;;;;4899358;29;20425;-75
2020/12/18 15:00:38;;;;;;;3.70;1.90;;;12.00;99.90;;;;;;4899301;29;20663;-74
2020/12/18 15:03:04;;;;;;;3.97;1.90;;;11.90;99.90;;;;;;4899170;29;20176;-74
2020/12/18 15:05:30;;;;;;;3.93;1.43;;;11.90;99.90;;;;;;4899227;29;20859;-74
2020/12/18 15:07:55;;;;;;;2.17;1.60;;;12.00;99.90;;;;;;4899175;29;20596;-74
2020/12/18 15:10:21;;;;;;;4.07;2.40;;;12.00;99.90;;;;;;4899755;29;20516;-74
2020/12/18 15:12:47;;;;;;;9.03;2.07;;;11.90;99.90;;;;;;4899630;29;20189;-74
2020/12/18 15:15:13;;;;;;;3.47;1.60;;;11.70;99.90;;;;;;4899833;29;20181;-74
2020/12/18 15:17:38;;;;;;;2.80;1.40;;;11.70;99.90;;;;;;4899407;29;20236;-74
2020/12/18 15:20:05;;;;;;;4.10;1.90;;;11.60;99.90;;;;;;4899500;29;20806;-74
2020/12/18 15:22:31;;;;;;;3.63;1.70;;;11.60;99.90;;;;;;4899566;29;20185;-74
2020/12/18 15:24:56;;;;;;;3.00;2.10;;;11.50;99.90;;;;;;4899413;29;21000;-74
2020/12/18 15:27:22;;;;;;;2.80;2.17;;;11.50;99.90;;;;;;4898310;29;20184;-74
2020/12/18 15:29:48;;;;;;;4.33;1.80;;;11.50;99.90;;;;;;4899277;29;20184;-74
2020/12/18 15:32:13;;;;;;;3.00;2.70;;;11.40;99.90;;;;;;4899307;29;20236;-74
2020/12/18 15:34:39;;;;;;;5.70;2.30;;;11.40;99.90;;;;;;4899167;29;20223;-74
2020/12/18 15:37:07;;;;;;;3.83;2.63;;;11.40;99.90;;;;;;4899210;29;20181;-74
2020/12/18 15:39:34;;;;;;;2.50;1.87;;;11.30;99.90;;;;;;4899448;29;20173;-74
2020/12/18 15:42:00;;;;;;;2.57;2.37;;;11.30;99.90;;;;;;4899141;29;20436;-74
2020/12/18 15:44:26;;;;;;;3.30;1.90;;;11.30;99.90;;;;;;4899153;29;20460;-74
2020/12/18 15:46:52;;;;;;;4.17;2.87;;;11.30;99.90;;;;;;4898995;29;20524;-74
2020/12/18 15:49:18;;;;;;;2.40;2.17;;;11.20;99.90;;;;;;4899012;29;20480;-74
2020/12/18 15:51:48;;;;;;;4.10;2.70;;;11.10;99.90;;;;;;4898813;29;20180;-75
2020/12/18 15:54:14;;;;;;;7.13;2.77;;;11.20;99.90;;;;;;4899096;29;20436;-74
2020/12/18 15:56:39;;;;;;;4.63;2.40;;;11.10;99.90;;;;;;4898894;29;20428;-74
2020/12/18 15:59:05;;;;;;;3.10;1.77;;;11.20;99.90;;;;;;4898812;29;20207;-74
2020/12/18 16:01:30;;;;;;;3.47;2.33;;;11.20;99.90;;;;;;4898869;29;20532;-74
2020/12/18 16:03:56;;;;;;;2.80;2.10;;;11.20;99.90;;;;;;4898534;29;20451;-76
2020/12/18 16:06:21;;;;;;;3.37;2.57;;;11.20;99.90;;;;;;4898000;29;20182;-74
2020/12/18 16:08:47;;;;;;;3.97;2.30;;;11.10;99.90;;;;;;4897795;29;20226;-74
2020/12/18 16:11:13;;;;;;;2.67;2.10;;;11.10;99.90;;;;;;4897614;29;20641;-74
2020/12/18 16:13:39;;;;;;;4.33;2.50;;;11.00;99.90;;;;;;4897671;29;20189;-75
2020/12/18 16:16:05;;;;;;;3.40;2.33;;;10.90;99.90;;;;;;4897666;29;20236;-76
2020/12/18 16:18:31;;;;;;;2.80;2.17;;;10.80;99.90;;;;;;4897525;29;20228;-81
2020/12/18 16:20:57;;;;;;;6.00;2.37;;;10.80;99.90;;;;;;4897622;29;20493;-73
2020/12/18 16:23:23;;;;;;;2.60;2.37;;;10.80;99.90;;;;;;4897632;29;20451;-75
2020/12/18 16:25:52;;;;;;;2.40;1.90;;;10.90;99.90;;;;;;4897582;29;20259;-76
2020/12/18 16:28:18;;;;;;;2.60;2.07;;;11.00;99.90;;;;;;4897651;29;20488;-79
2020/12/18 16:30:44;;;;;;;5.00;2.60;;;11.00;99.90;;;;;;4897736;29;20944;-75
2020/12/18 16:33:09;;;;;;;3.00;1.90;;;11.00;99.90;;;;;;4897496;29;20188;-76
2020/12/18 16:35:35;;;;;;;3.93;2.10;;;10.70;99.90;;;;;;4898018;29;20184;-83
2020/12/18 16:38:00;;;;;;;7.60;2.27;;;10.80;99.90;;;;;;4898557;29;20184;-79
2020/12/18 16:40:26;;;;;;;3.00;2.33;;;10.80;99.90;;;;;;4897318;29;20216;-77
2020/12/18 16:42:51;;;;;;;2.90;2.33;;;10.80;99.90;;;;;;4897932;29;20180;-81
2020/12/18 16:45:17;;;;;;;3.67;2.40;;;10.90;99.90;;;;;;4898614;29;20188;-79
2020/12/18 16:47:44;;;;;;;3.57;2.50;;;10.80;99.90;;;;;;4898548;29;20672;-75
2020/12/18 16:50:11;;;;;;;3.90;2.90;;;10.70;99.90;;;;;;4897425;29;20208;-76
2020/12/18 16:52:37;;;;;;;3.73;2.13;;;10.70;99.90;;;;;;4897888;29;20440;-77
2020/12/18 16:55:03;;;;;;;4.17;1.70;;;10.60;99.90;;;;;;4897560;29;20478;-77
2020/12/18 16:57:29;;;;;;;3.30;2.33;;;10.70;99.90;;;;;;4891752;29;20189;-77
2020/12/18 16:59:55;;;;;;;2.43;1.93;;;10.70;99.90;;;;;;4898039;29;20440;-77
2020/12/18 17:02:20;;;;;;;2.67;1.90;;;10.60;99.90;;;;;;4900901;29;20928;-76
2020/12/18 17:04:46;;;;;;;3.40;2.03;;;10.50;99.90;;;;;;4910687;29;20593;-78
2020/12/18 17:07:12;;;;;;;5.10;1.90;;;10.60;99.90;;;;;;4898184;29;20684;-78
2020/12/18 17:09:37;;;;;;;3.23;2.27;;;10.70;99.90;;;;;;4873593;29;20653;-79